sensor_id;sensor_type;location;lat;lon;timestamp;P1;durP1;ratioP1;P2;durP2;ratioP2
54121;SDS011;40029;58.708;50.190;2022-07-22T00:01:16;10.90;;;2.90;;
54121;SDS011;40029;58.708;50.190;2022-07-22T00:03:47;3.25;;;2.45;;
54121;SDS011;40029;58.708;50.190;2022-07-22T00:06:18;7.93;;;2.88;;
54121;SDS011;40029;58.708;50.190;2022-07-22T00:08:49;4.43;;;2.65;;
54121;SDS011;40029;58.708;50.190;2022-07-22T00:11:21;4.15;;;2.05;;
54121;SDS011;40029;58.708;50.190;2022-07-22T00:13:52;11.55;;;2.80;;
54121;SDS011;40029;58.708;50.190;2022-07-22T00:16:23;2.40;;;2.20;;
54121;SDS011;40029;58.708;50.190;2022-07-22T00:18:54;10.20;;;2.53;;
54121;SDS011;40029;58.708;50.190;2022-07-22T00:21:25;4.63;;;2.33;;
54121;SDS011;40029;58.708;50.190;2022-07-22T00:23:56;4.05;;;3.05;;
54121;SDS011;40029;58.708;50.190;2022-07-22T00:26:27;12.50;;;2.67;;
54121;SDS011;40029;58.708;50.190;2022-07-22T00:28:58;7.03;;;3.00;;
54121;SDS011;40029;58.708;50.190;2022-07-22T00:31:30;9.48;;;3.53;;
54121;SDS011;40029;58.708;50.190;2022-07-22T00:34:01;4.75;;;2.85;;
54121;SDS011;40029;58.708;50.190;2022-07-22T00:36:33;8.80;;;3.15;;
54121;SDS011;40029;58.708;50.190;2022-07-22T00:39:04;5.13;;;2.05;;
54121;SDS011;40029;58.708;50.190;2022-07-22T00:41:34;5.70;;;2.90;;
54121;SDS011;40029;58.708;50.190;2022-07-22T00:44:06;12.52;;;3.15;;
54121;SDS011;40029;58.708;50.190;2022-07-22T00:46:38;4.18;;;3.10;;
54121;SDS011;40029;58.708;50.190;2022-07-22T00:49:09;4.32;;;2.67;;
54121;SDS011;40029;58.708;50.190;2022-07-22T00:51:40;6.20;;;2.50;;
54121;SDS011;40029;58.708;50.190;2022-07-22T00:54:12;4.45;;;2.33;;
54121;SDS011;40029;58.708;50.190;2022-07-22T00:56:43;11.57;;;2.63;;
54121;SDS011;40029;58.708;50.190;2022-07-22T00:59:15;8.20;;;3.15;;
54121;SDS011;40029;58.708;50.190;2022-07-22T01:01:47;9.40;;;2.85;;
54121;SDS011;40029;58.708;50.190;2022-07-22T01:04:18;4.80;;;2.95;;
54121;SDS011;40029;58.708;50.190;2022-07-22T01:06:49;4.20;;;3.38;;
54121;SDS011;40029;58.708;50.190;2022-07-22T01:09:20;2.97;;;2.70;;
54121;SDS011;40029;58.708;50.190;2022-07-22T01:11:51;4.35;;;2.70;;
54121;SDS011;40029;58.708;50.190;2022-07-22T01:14:22;8.93;;;2.92;;
54121;SDS011;40029;58.708;50.190;2022-07-22T01:16:53;10.05;;;2.53;;
54121;SDS011;40029;58.708;50.190;2022-07-22T01:19:24;3.63;;;2.72;;
54121;SDS011;40029;58.708;50.190;2022-07-22T01:21:55;5.93;;;2.70;;
54121;SDS011;40029;58.708;50.190;2022-07-22T01:24:26;12.75;;;2.45;;
54121;SDS011;40029;58.708;50.190;2022-07-22T01:26:58;7.35;;;2.80;;
54121;SDS011;40029;58.708;50.190;2022-07-22T01:29:29;7.22;;;2.90;;
54121;SDS011;40029;58.708;50.190;2022-07-22T01:32:00;11.02;;;3.33;;
54121;SDS011;40029;58.708;50.190;2022-07-22T01:34:31;5.57;;;3.17;;
54121;SDS011;40029;58.708;50.190;2022-07-22T01:37:02;6.10;;;2.78;;
54121;SDS011;40029;58.708;50.190;2022-07-22T01:39:33;3.47;;;2.63;;
54121;SDS011;40029;58.708;50.190;2022-07-22T01:42:04;3.88;;;2.42;;
54121;SDS011;40029;58.708;50.190;2022-07-22T01:44:35;4.38;;;2.42;;
54121;SDS011;40029;58.708;50.190;2022-07-22T01:47:07;3.45;;;2.60;;
54121;SDS011;40029;58.708;50.190;2022-07-22T01:49:38;3.38;;;2.28;;
54121;SDS011;40029;58.708;50.190;2022-07-22T01:52:10;5.90;;;2.53;;
54121;SDS011;40029;58.708;50.190;2022-07-22T01:54:42;4.45;;;2.80;;
54121;SDS011;40029;58.708;50.190;2022-07-22T01:57:14;3.33;;;2.70;;
54121;SDS011;40029;58.708;50.190;2022-07-22T01:59:51;10.02;;;2.95;;
54121;SDS011;40029;58.708;50.190;2022-07-22T02:02:22;3.97;;;2.50;;
54121;SDS011;40029;58.708;50.190;2022-07-22T02:04:53;6.07;;;2.30;;
54121;SDS011;40029;58.708;50.190;2022-07-22T02:07:24;3.20;;;2.90;;
54121;SDS011;40029;58.708;50.190;2022-07-22T02:09:56;3.40;;;3.03;;
54121;SDS011;40029;58.708;50.190;2022-07-22T02:12:27;3.65;;;3.10;;
54121;SDS011;40029;58.708;50.190;2022-07-22T02:14:58;5.57;;;3.28;;
54121;SDS011;40029;58.708;50.190;2022-07-22T02:17:30;3.45;;;2.65;;
54121;SDS011;40029;58.708;50.190;2022-07-22T02:20:03;4.90;;;3.10;;
54121;SDS011;40029;58.708;50.190;2022-07-22T02:22:35;8.00;;;3.40;;
54121;SDS011;40029;58.708;50.190;2022-07-22T02:25:06;7.03;;;3.40;;
54121;SDS011;40029;58.708;50.190;2022-07-22T02:27:39;6.18;;;3.17;;
54121;SDS011;40029;58.708;50.190;2022-07-22T02:30:12;3.40;;;3.10;;
54121;SDS011;40029;58.708;50.190;2022-07-22T02:32:43;4.28;;;3.22;;
54121;SDS011;40029;58.708;50.190;2022-07-22T02:35:14;8.00;;;3.58;;
54121;SDS011;40029;58.708;50.190;2022-07-22T02:37:45;5.25;;;3.15;;
54121;SDS011;40029;58.708;50.190;2022-07-22T02:40:16;3.33;;;3.00;;
54121;SDS011;40029;58.708;50.190;2022-07-22T02:42:47;3.25;;;2.97;;
54121;SDS011;40029;58.708;50.190;2022-07-22T02:45:20;3.97;;;3.17;;
54121;SDS011;40029;58.708;50.190;2022-07-22T02:47:52;4.78;;;3.90;;
54121;SDS011;40029;58.708;50.190;2022-07-22T02:50:26;4.78;;;3.50;;
54121;SDS011;40029;58.708;50.190;2022-07-22T02:52:57;4.68;;;3.58;;
54121;SDS011;40029;58.708;50.190;2022-07-22T02:55:33;3.45;;;3.20;;
54121;SDS011;40029;58.708;50.190;2022-07-22T02:58:07;3.70;;;3.40;;
54121;SDS011;40029;58.708;50.190;2022-07-22T03:00:39;4.70;;;3.67;;
54121;SDS011;40029;58.708;50.190;2022-07-22T03:03:11;5.93;;;3.80;;
54121;SDS011;40029;58.708;50.190;2022-07-22T03:05:42;5.72;;;4.07;;
54121;SDS011;40029;58.708;50.190;2022-07-22T03:08:45;5.43;;;4.45;;
54121;SDS011;40029;58.708;50.190;2022-07-22T03:11:18;4.05;;;3.53;;
54121;SDS011;40029;58.708;50.190;2022-07-22T03:13:49;5.18;;;3.67;;
54121;SDS011;40029;58.708;50.190;2022-07-22T03:16:20;4.95;;;3.83;;
54121;SDS011;40029;58.708;50.190;2022-07-22T03:18:51;9.95;;;4.53;;
54121;SDS011;40029;58.708;50.190;2022-07-22T03:21:23;4.97;;;3.35;;
54121;SDS011;40029;58.708;50.190;2022-07-22T03:23:56;9.65;;;3.97;;
54121;SDS011;40029;58.708;50.190;2022-07-22T03:26:27;5.63;;;3.40;;
54121;SDS011;40029;58.708;50.190;2022-07-22T03:28:58;4.00;;;3.40;;
54121;SDS011;40029;58.708;50.190;2022-07-22T03:31:29;8.02;;;3.95;;
54121;SDS011;40029;58.708;50.190;2022-07-22T03:34:00;4.07;;;3.67;;
54121;SDS011;40029;58.708;50.190;2022-07-22T03:36:36;6.25;;;3.13;;
54121;SDS011;40029;58.708;50.190;2022-07-22T03:39:07;4.05;;;3.65;;
54121;SDS011;40029;58.708;50.190;2022-07-22T03:41:38;5.63;;;3.78;;
54121;SDS011;40029;58.708;50.190;2022-07-22T03:44:10;4.57;;;3.90;;
54121;SDS011;40029;58.708;50.190;2022-07-22T03:46:41;7.38;;;4.28;;
54121;SDS011;40029;58.708;50.190;2022-07-22T03:49:12;5.80;;;5.03;;
54121;SDS011;40029;58.708;50.190;2022-07-22T03:51:43;5.93;;;4.57;;
54121;SDS011;40029;58.708;50.190;2022-07-22T03:54:14;7.35;;;5.35;;
54121;SDS011;40029;58.708;50.190;2022-07-22T03:56:46;10.10;;;4.53;;
54121;SDS011;40029;58.708;50.190;2022-07-22T03:59:19;8.23;;;5.32;;
54121;SDS011;40029;58.708;50.190;2022-07-22T04:01:51;7.45;;;5.40;;
54121;SDS011;40029;58.708;50.190;2022-07-22T04:04:23;5.20;;;4.70;;
54121;SDS011;40029;58.708;50.190;2022-07-22T04:06:54;6.35;;;4.22;;
54121;SDS011;40029;58.708;50.190;2022-07-22T04:09:32;5.68;;;4.13;;
54121;SDS011;40029;58.708;50.190;2022-07-22T04:12:03;8.52;;;4.40;;
54121;SDS011;40029;58.708;50.190;2022-07-22T04:14:40;9.52;;;4.60;;
54121;SDS011;40029;58.708;50.190;2022-07-22T04:17:12;6.55;;;4.25;;
54121;SDS011;40029;58.708;50.190;2022-07-22T04:19:42;7.45;;;4.82;;
54121;SDS011;40029;58.708;50.190;2022-07-22T04:22:29;5.28;;;4.78;;
54121;SDS011;40029;58.708;50.190;2022-07-22T04:25:00;8.27;;;4.80;;
54121;SDS011;40029;58.708;50.190;2022-07-22T04:27:33;15.50;;;5.22;;
54121;SDS011;40029;58.708;50.190;2022-07-22T04:30:04;6.18;;;4.20;;
54121;SDS011;40029;58.708;50.190;2022-07-22T04:32:37;6.20;;;4.40;;
54121;SDS011;40029;58.708;50.190;2022-07-22T04:35:08;7.80;;;4.70;;
54121;SDS011;40029;58.708;50.190;2022-07-22T04:37:41;7.82;;;4.47;;
54121;SDS011;40029;58.708;50.190;2022-07-22T04:40:12;5.20;;;3.78;;
54121;SDS011;40029;58.708;50.190;2022-07-22T04:42:43;8.70;;;4.57;;
54121;SDS011;40029;58.708;50.190;2022-07-22T04:45:15;5.03;;;4.20;;
54121;SDS011;40029;58.708;50.190;2022-07-22T04:47:47;6.78;;;4.55;;
54121;SDS011;40029;58.708;50.190;2022-07-22T04:50:18;7.88;;;4.60;;
54121;SDS011;40029;58.708;50.190;2022-07-22T04:52:49;4.70;;;4.22;;
54121;SDS011;40029;58.708;50.190;2022-07-22T04:55:20;11.43;;;4.65;;
54121;SDS011;40029;58.708;50.190;2022-07-22T04:57:51;8.48;;;4.50;;
54121;SDS011;40029;58.708;50.190;2022-07-22T05:00:23;13.98;;;5.18;;
54121;SDS011;40029;58.708;50.190;2022-07-22T05:03:00;4.97;;;4.47;;
54121;SDS011;40029;58.708;50.190;2022-07-22T05:05:31;7.30;;;4.32;;
54121;SDS011;40029;58.708;50.190;2022-07-22T05:08:02;10.07;;;6.95;;
54121;SDS011;40029;58.708;50.190;2022-07-22T05:10:34;7.30;;;5.40;;
54121;SDS011;40029;58.708;50.190;2022-07-22T05:13:05;7.82;;;4.95;;
54121;SDS011;40029;58.708;50.190;2022-07-22T05:15:38;5.88;;;5.00;;
54121;SDS011;40029;58.708;50.190;2022-07-22T05:18:09;6.13;;;4.95;;
54121;SDS011;40029;58.708;50.190;2022-07-22T05:20:40;7.97;;;5.03;;
54121;SDS011;40029;58.708;50.190;2022-07-22T05:23:11;6.32;;;5.03;;
54121;SDS011;40029;58.708;50.190;2022-07-22T05:25:44;5.93;;;4.75;;
54121;SDS011;40029;58.708;50.190;2022-07-22T05:28:15;6.05;;;5.45;;
54121;SDS011;40029;58.708;50.190;2022-07-22T05:30:48;7.22;;;5.20;;
54121;SDS011;40029;58.708;50.190;2022-07-22T05:33:19;5.78;;;5.20;;
54121;SDS011;40029;58.708;50.190;2022-07-22T05:36:12;7.82;;;4.88;;
54121;SDS011;40029;58.708;50.190;2022-07-22T05:38:51;11.13;;;7.30;;
54121;SDS011;40029;58.708;50.190;2022-07-22T05:41:22;6.95;;;5.22;;
54121;SDS011;40029;58.708;50.190;2022-07-22T05:43:53;6.95;;;5.53;;
54121;SDS011;40029;58.708;50.190;2022-07-22T05:46:24;9.95;;;5.68;;
54121;SDS011;40029;58.708;50.190;2022-07-22T05:48:55;6.78;;;5.40;;
54121;SDS011;40029;58.708;50.190;2022-07-22T05:51:26;7.82;;;5.32;;
54121;SDS011;40029;58.708;50.190;2022-07-22T05:53:57;7.05;;;6.00;;
54121;SDS011;40029;58.708;50.190;2022-07-22T05:56:28;6.10;;;5.50;;
54121;SDS011;40029;58.708;50.190;2022-07-22T05:58:59;6.55;;;4.85;;
54121;SDS011;40029;58.708;50.190;2022-07-22T06:01:30;8.05;;;5.30;;
54121;SDS011;40029;58.708;50.190;2022-07-22T06:04:07;5.70;;;4.80;;
54121;SDS011;40029;58.708;50.190;2022-07-22T06:06:38;7.25;;;5.85;;
54121;SDS011;40029;58.708;50.190;2022-07-22T06:09:10;6.38;;;5.53;;
54121;SDS011;40029;58.708;50.190;2022-07-22T06:11:40;6.10;;;5.60;;
54121;SDS011;40029;58.708;50.190;2022-07-22T06:14:11;8.27;;;6.00;;
54121;SDS011;40029;58.708;50.190;2022-07-22T06:16:43;10.13;;;6.25;;
54121;SDS011;40029;58.708;50.190;2022-07-22T06:19:14;14.32;;;6.20;;
54121;SDS011;40029;58.708;50.190;2022-07-22T06:21:46;6.47;;;5.80;;
54121;SDS011;40029;58.708;50.190;2022-07-22T06:24:18;5.97;;;5.38;;
54121;SDS011;40029;58.708;50.190;2022-07-22T06:26:49;6.68;;;5.93;;
54121;SDS011;40029;58.708;50.190;2022-07-22T06:29:21;10.02;;;6.20;;
54121;SDS011;40029;58.708;50.190;2022-07-22T06:31:52;10.50;;;6.25;;
54121;SDS011;40029;58.708;50.190;2022-07-22T06:34:23;6.53;;;5.15;;
54121;SDS011;40029;58.708;50.190;2022-07-22T06:37:03;8.43;;;5.40;;
54121;SDS011;40029;58.708;50.190;2022-07-22T06:39:34;6.32;;;5.68;;
54121;SDS011;40029;58.708;50.190;2022-07-22T06:42:24;7.78;;;6.93;;
54121;SDS011;40029;58.708;50.190;2022-07-22T06:45:15;6.68;;;5.50;;
54121;SDS011;40029;58.708;50.190;2022-07-22T06:48:09;6.88;;;6.18;;
54121;SDS011;40029;58.708;50.190;2022-07-22T06:50:40;7.43;;;6.57;;
54121;SDS011;40029;58.708;50.190;2022-07-22T06:53:17;7.47;;;5.55;;
54121;SDS011;40029;58.708;50.190;2022-07-22T06:55:49;8.85;;;6.80;;
54121;SDS011;40029;58.708;50.190;2022-07-22T06:58:20;11.23;;;6.35;;
54121;SDS011;40029;58.708;50.190;2022-07-22T07:00:51;7.88;;;6.00;;
54121;SDS011;40029;58.708;50.190;2022-07-22T07:03:32;7.03;;;6.30;;
54121;SDS011;40029;58.708;50.190;2022-07-22T07:06:07;6.78;;;6.10;;
54121;SDS011;40029;58.708;50.190;2022-07-22T07:09:07;6.22;;;5.63;;
54121;SDS011;40029;58.708;50.190;2022-07-22T07:11:39;8.32;;;5.72;;
54121;SDS011;40029;58.708;50.190;2022-07-22T07:14:20;7.05;;;6.32;;
54121;SDS011;40029;58.708;50.190;2022-07-22T07:16:51;11.02;;;6.50;;
54121;SDS011;40029;58.708;50.190;2022-07-22T07:19:23;7.57;;;6.13;;
54121;SDS011;40029;58.708;50.190;2022-07-22T07:21:54;6.15;;;5.55;;
54121;SDS011;40029;58.708;50.190;2022-07-22T07:24:25;8.07;;;5.97;;
54121;SDS011;40029;58.708;50.190;2022-07-22T07:26:56;8.18;;;6.32;;
54121;SDS011;40029;58.708;50.190;2022-07-22T07:29:27;9.50;;;6.10;;
54121;SDS011;40029;58.708;50.190;2022-07-22T07:31:58;9.18;;;6.28;;
54121;SDS011;40029;58.708;50.190;2022-07-22T07:34:29;8.50;;;6.63;;
54121;SDS011;40029;58.708;50.190;2022-07-22T07:37:00;15.57;;;6.95;;
54121;SDS011;40029;58.708;50.190;2022-07-22T07:39:31;6.13;;;5.53;;
54121;SDS011;40029;58.708;50.190;2022-07-22T07:42:02;6.75;;;6.15;;
54121;SDS011;40029;58.708;50.190;2022-07-22T07:44:34;9.52;;;5.95;;
54121;SDS011;40029;58.708;50.190;2022-07-22T07:47:06;10.48;;;6.55;;
54121;SDS011;40029;58.708;50.190;2022-07-22T07:49:38;8.05;;;6.15;;
54121;SDS011;40029;58.708;50.190;2022-07-22T07:52:09;7.20;;;5.90;;
54121;SDS011;40029;58.708;50.190;2022-07-22T07:54:41;10.75;;;6.18;;
54121;SDS011;40029;58.708;50.190;2022-07-22T07:57:12;15.25;;;6.10;;
54121;SDS011;40029;58.708;50.190;2022-07-22T07:59:43;7.13;;;6.32;;
54121;SDS011;40029;58.708;50.190;2022-07-22T08:02:14;7.63;;;6.38;;
54121;SDS011;40029;58.708;50.190;2022-07-22T08:04:45;6.85;;;6.10;;
54121;SDS011;40029;58.708;50.190;2022-07-22T08:07:20;6.20;;;5.70;;
54121;SDS011;40029;58.708;50.190;2022-07-22T08:09:53;10.38;;;6.43;;
54121;SDS011;40029;58.708;50.190;2022-07-22T08:12:44;8.30;;;6.55;;
54121;SDS011;40029;58.708;50.190;2022-07-22T08:15:48;12.77;;;7.25;;
54121;SDS011;40029;58.708;50.190;2022-07-22T08:18:26;8.52;;;6.68;;
54121;SDS011;40029;58.708;50.190;2022-07-22T08:20:58;8.48;;;6.00;;
54121;SDS011;40029;58.708;50.190;2022-07-22T08:24:04;8.52;;;6.28;;
54121;SDS011;40029;58.708;50.190;2022-07-22T08:26:35;9.60;;;6.78;;
54121;SDS011;40029;58.708;50.190;2022-07-22T08:29:07;6.88;;;6.28;;
54121;SDS011;40029;58.708;50.190;2022-07-22T08:31:40;8.38;;;6.90;;
54121;SDS011;40029;58.708;50.190;2022-07-22T08:34:14;7.40;;;6.70;;
54121;SDS011;40029;58.708;50.190;2022-07-22T08:36:45;7.80;;;6.47;;
54121;SDS011;40029;58.708;50.190;2022-07-22T08:39:17;8.45;;;6.53;;
54121;SDS011;40029;58.708;50.190;2022-07-22T08:41:48;10.75;;;7.90;;
54121;SDS011;40029;58.708;50.190;2022-07-22T08:44:20;7.25;;;6.53;;
54121;SDS011;40029;58.708;50.190;2022-07-22T08:46:51;7.80;;;6.90;;
54121;SDS011;40029;58.708;50.190;2022-07-22T08:49:23;7.28;;;6.57;;
54121;SDS011;40029;58.708;50.190;2022-07-22T08:52:02;9.30;;;7.53;;
54121;SDS011;40029;58.708;50.190;2022-07-22T08:54:40;8.40;;;7.50;;
54121;SDS011;40029;58.708;50.190;2022-07-22T08:57:14;11.63;;;6.78;;
54121;SDS011;40029;58.708;50.190;2022-07-22T08:59:54;9.35;;;7.53;;
54121;SDS011;40029;58.708;50.190;2022-07-22T09:02:28;8.48;;;6.72;;
54121;SDS011;40029;58.708;50.190;2022-07-22T09:05:08;18.58;;;8.20;;
54121;SDS011;40029;58.708;50.190;2022-07-22T09:07:42;8.88;;;7.93;;
54121;SDS011;40029;58.708;50.190;2022-07-22T09:10:43;13.68;;;8.32;;
54121;SDS011;40029;58.708;50.190;2022-07-22T09:13:17;8.95;;;7.07;;
54121;SDS011;40029;58.708;50.190;2022-07-22T09:16:04;9.48;;;7.72;;
54121;SDS011;40029;58.708;50.190;2022-07-22T09:18:45;9.35;;;6.80;;
54121;SDS011;40029;58.708;50.190;2022-07-22T09:21:42;9.85;;;7.65;;
54121;SDS011;40029;58.708;50.190;2022-07-22T09:24:30;12.27;;;8.25;;
54121;SDS011;40029;58.708;50.190;2022-07-22T09:27:27;10.10;;;8.23;;
54121;SDS011;40029;58.708;50.190;2022-07-22T09:30:20;13.02;;;8.18;;
54121;SDS011;40029;58.708;50.190;2022-07-22T09:32:56;7.85;;;6.65;;
54121;SDS011;40029;58.708;50.190;2022-07-22T09:35:43;8.45;;;7.57;;
54121;SDS011;40029;58.708;50.190;2022-07-22T09:38:17;7.90;;;7.13;;
54121;SDS011;40029;58.708;50.190;2022-07-22T09:40:56;8.48;;;7.63;;
54121;SDS011;40029;58.708;50.190;2022-07-22T09:43:29;8.35;;;7.53;;
54121;SDS011;40029;58.708;50.190;2022-07-22T09:46:06;9.57;;;7.95;;
54121;SDS011;40029;58.708;50.190;2022-07-22T09:48:58;8.43;;;7.63;;
54121;SDS011;40029;58.708;50.190;2022-07-22T09:51:55;10.32;;;8.65;;
54121;SDS011;40029;58.708;50.190;2022-07-22T09:54:43;10.88;;;7.18;;
54121;SDS011;40029;58.708;50.190;2022-07-22T09:57:15;8.73;;;7.85;;
54121;SDS011;40029;58.708;50.190;2022-07-22T09:59:47;13.52;;;8.05;;
54121;SDS011;40029;58.708;50.190;2022-07-22T10:02:30;11.15;;;7.50;;
54121;SDS011;40029;58.708;50.190;2022-07-22T10:05:04;9.48;;;8.13;;
54121;SDS011;40029;58.708;50.190;2022-07-22T10:07:35;9.30;;;8.20;;
54121;SDS011;40029;58.708;50.190;2022-07-22T10:10:10;11.02;;;6.88;;
54121;SDS011;40029;58.708;50.190;2022-07-22T10:12:44;11.95;;;7.57;;
54121;SDS011;40029;58.708;50.190;2022-07-22T10:15:18;8.75;;;7.82;;
54121;SDS011;40029;58.708;50.190;2022-07-22T10:17:52;13.68;;;7.57;;
54121;SDS011;40029;58.708;50.190;2022-07-22T10:20:26;10.25;;;8.55;;
54121;SDS011;40029;58.708;50.190;2022-07-22T10:22:59;8.17;;;7.47;;
54121;SDS011;40029;58.708;50.190;2022-07-22T10:25:51;9.48;;;7.88;;
54121;SDS011;40029;58.708;50.190;2022-07-22T10:28:35;8.38;;;7.57;;
54121;SDS011;40029;58.708;50.190;2022-07-22T10:31:23;8.13;;;7.43;;
54121;SDS011;40029;58.708;50.190;2022-07-22T10:33:56;8.93;;;8.13;;
54121;SDS011;40029;58.708;50.190;2022-07-22T10:36:37;9.27;;;8.35;;
54121;SDS011;40029;58.708;50.190;2022-07-22T10:39:13;10.90;;;7.95;;
54121;SDS011;40029;58.708;50.190;2022-07-22T10:41:45;10.95;;;8.65;;
54121;SDS011;40029;58.708;50.190;2022-07-22T10:44:16;16.02;;;8.65;;
54121;SDS011;40029;58.708;50.190;2022-07-22T10:47:41;8.48;;;7.68;;
54121;SDS011;40029;58.708;50.190;2022-07-22T10:56:14;14.43;;;7.78;;
54121;SDS011;40029;58.708;50.190;2022-07-22T10:59:07;8.10;;;7.40;;
54121;SDS011;40029;58.708;50.190;2022-07-22T11:01:40;10.50;;;7.60;;
54121;SDS011;40029;58.708;50.190;2022-07-22T11:04:17;8.35;;;7.40;;
54121;SDS011;40029;58.708;50.190;2022-07-22T11:06:50;8.75;;;8.05;;
54121;SDS011;40029;58.708;50.190;2022-07-22T11:09:29;12.25;;;8.68;;
54121;SDS011;40029;58.708;50.190;2022-07-22T11:12:02;14.45;;;8.65;;
54121;SDS011;40029;58.708;50.190;2022-07-22T11:14:33;8.38;;;7.65;;
54121;SDS011;40029;58.708;50.190;2022-07-22T11:17:07;8.65;;;7.85;;
54121;SDS011;40029;58.708;50.190;2022-07-22T11:19:40;11.07;;;8.20;;
54121;SDS011;40029;58.708;50.190;2022-07-22T11:22:11;10.73;;;7.72;;
54121;SDS011;40029;58.708;50.190;2022-07-22T11:24:47;42.40;;;11.32;;
54121;SDS011;40029;58.708;50.190;2022-07-22T11:27:19;7.55;;;6.65;;
54121;SDS011;40029;58.708;50.190;2022-07-22T11:29:55;25.80;;;7.30;;
54121;SDS011;40029;58.708;50.190;2022-07-22T11:32:27;12.52;;;7.38;;
54121;SDS011;40029;58.708;50.190;2022-07-22T11:35:01;22.05;;;12.07;;
54121;SDS011;40029;58.708;50.190;2022-07-22T11:37:34;20.50;;;11.38;;
54121;SDS011;40029;58.708;50.190;2022-07-22T11:40:05;19.17;;;12.60;;
54121;SDS011;40029;58.708;50.190;2022-07-22T11:42:38;20.58;;;13.02;;
54121;SDS011;40029;58.708;50.190;2022-07-22T11:45:09;14.30;;;11.57;;
54121;SDS011;40029;58.708;50.190;2022-07-22T11:47:48;17.63;;;12.95;;
54121;SDS011;40029;58.708;50.190;2022-07-22T11:50:30;18.33;;;11.98;;
54121;SDS011;40029;58.708;50.190;2022-07-22T11:53:02;16.15;;;11.50;;
54121;SDS011;40029;58.708;50.190;2022-07-22T11:55:33;13.00;;;11.18;;
54121;SDS011;40029;58.708;50.190;2022-07-22T11:58:04;16.13;;;11.68;;
54121;SDS011;40029;58.708;50.190;2022-07-22T12:00:35;17.83;;;12.10;;
54121;SDS011;40029;58.708;50.190;2022-07-22T12:03:06;24.70;;;16.00;;
54121;SDS011;40029;58.708;50.190;2022-07-22T12:05:37;17.95;;;14.82;;
54121;SDS011;40029;58.708;50.190;2022-07-22T12:08:08;20.67;;;17.15;;
54121;SDS011;40029;58.708;50.190;2022-07-22T12:10:40;16.42;;;12.70;;
54121;SDS011;40029;58.708;50.190;2022-07-22T12:13:11;19.88;;;13.15;;
54121;SDS011;40029;58.708;50.190;2022-07-22T12:15:43;12.98;;;11.43;;
54121;SDS011;40029;58.708;50.190;2022-07-22T12:18:18;13.02;;;11.60;;
54121;SDS011;40029;58.708;50.190;2022-07-22T12:20:52;16.00;;;10.35;;
54121;SDS011;40029;58.708;50.190;2022-07-22T12:23:24;11.60;;;7.88;;
54121;SDS011;40029;58.708;50.190;2022-07-22T12:25:57;8.75;;;7.47;;
54121;SDS011;40029;58.708;50.190;2022-07-22T12:28:30;16.40;;;7.97;;
54121;SDS011;40029;58.708;50.190;2022-07-22T12:31:01;10.65;;;8.88;;
54121;SDS011;40029;58.708;50.190;2022-07-22T12:33:32;11.48;;;8.82;;
54121;SDS011;40029;58.708;50.190;2022-07-22T12:38:36;8.00;;;7.30;;
54121;SDS011;40029;58.708;50.190;2022-07-22T12:41:26;12.40;;;6.25;;
54121;SDS011;40029;58.708;50.190;2022-07-22T12:44:00;8.15;;;6.13;;
54121;SDS011;40029;58.708;50.190;2022-07-22T12:46:31;6.05;;;5.50;;
54121;SDS011;40029;58.708;50.190;2022-07-22T12:49:02;7.30;;;6.70;;
54121;SDS011;40029;58.708;50.190;2022-07-22T12:51:34;7.07;;;6.55;;
54121;SDS011;40029;58.708;50.190;2022-07-22T12:54:04;7.63;;;6.78;;
54121;SDS011;40029;58.708;50.190;2022-07-22T12:56:35;8.43;;;7.38;;
54121;SDS011;40029;58.708;50.190;2022-07-22T12:59:06;8.38;;;7.68;;
54121;SDS011;40029;58.708;50.190;2022-07-22T13:01:37;9.18;;;7.60;;
54121;SDS011;40029;58.708;50.190;2022-07-22T13:04:08;7.47;;;6.72;;
54121;SDS011;40029;58.708;50.190;2022-07-22T13:06:39;9.07;;;8.25;;
54121;SDS011;40029;58.708;50.190;2022-07-22T13:09:10;14.48;;;10.02;;
54121;SDS011;40029;58.708;50.190;2022-07-22T13:11:42;9.95;;;9.05;;
54121;SDS011;40029;58.708;50.190;2022-07-22T13:14:16;12.25;;;9.55;;
54121;SDS011;40029;58.708;50.190;2022-07-22T13:16:47;12.15;;;8.85;;
54121;SDS011;40029;58.708;50.190;2022-07-22T13:19:18;14.93;;;9.23;;
54121;SDS011;40029;58.708;50.190;2022-07-22T13:21:49;11.57;;;8.40;;
54121;SDS011;40029;58.708;50.190;2022-07-22T13:24:20;10.25;;;8.60;;
54121;SDS011;40029;58.708;50.190;2022-07-22T13:26:51;11.10;;;8.30;;
54121;SDS011;40029;58.708;50.190;2022-07-22T13:29:22;11.23;;;8.80;;
54121;SDS011;40029;58.708;50.190;2022-07-22T13:31:53;11.40;;;8.70;;
54121;SDS011;40029;58.708;50.190;2022-07-22T13:34:24;9.85;;;8.93;;
54121;SDS011;40029;58.708;50.190;2022-07-22T13:36:55;8.18;;;7.40;;
54121;SDS011;40029;58.708;50.190;2022-07-22T13:39:26;8.73;;;7.80;;
54121;SDS011;40029;58.708;50.190;2022-07-22T13:41:58;9.48;;;7.97;;
54121;SDS011;40029;58.708;50.190;2022-07-22T13:44:28;14.25;;;8.32;;
54121;SDS011;40029;58.708;50.190;2022-07-22T13:46:59;10.32;;;7.78;;
54121;SDS011;40029;58.708;50.190;2022-07-22T13:49:31;9.48;;;8.57;;
54121;SDS011;40029;58.708;50.190;2022-07-22T13:52:02;8.48;;;7.63;;
54121;SDS011;40029;58.708;50.190;2022-07-22T13:54:33;8.13;;;7.43;;
54121;SDS011;40029;58.708;50.190;2022-07-22T13:57:05;7.57;;;6.88;;
54121;SDS011;40029;58.708;50.190;2022-07-22T13:59:36;11.13;;;7.80;;
54121;SDS011;40029;58.708;50.190;2022-07-22T14:02:08;11.07;;;7.35;;
54121;SDS011;40029;58.708;50.190;2022-07-22T14:04:39;8.30;;;7.50;;
54121;SDS011;40029;58.708;50.190;2022-07-22T14:07:11;7.85;;;7.18;;
54121;SDS011;40029;58.708;50.190;2022-07-22T14:09:42;10.05;;;9.05;;
54121;SDS011;40029;58.708;50.190;2022-07-22T14:12:13;8.60;;;7.15;;
54121;SDS011;40029;58.708;50.190;2022-07-22T14:14:44;7.57;;;6.70;;
54121;SDS011;40029;58.708;50.190;2022-07-22T14:17:14;8.02;;;6.95;;
54121;SDS011;40029;58.708;50.190;2022-07-22T14:19:45;8.60;;;7.68;;
54121;SDS011;40029;58.708;50.190;2022-07-22T14:22:16;7.95;;;6.97;;
54121;SDS011;40029;58.708;50.190;2022-07-22T14:24:47;8.65;;;7.82;;
54121;SDS011;40029;58.708;50.190;2022-07-22T14:27:18;9.60;;;8.38;;
54121;SDS011;40029;58.708;50.190;2022-07-22T14:29:49;10.25;;;9.32;;
54121;SDS011;40029;58.708;50.190;2022-07-22T14:32:20;9.82;;;8.95;;
54121;SDS011;40029;58.708;50.190;2022-07-22T14:34:51;14.35;;;11.18;;
54121;SDS011;40029;58.708;50.190;2022-07-22T14:37:22;13.32;;;10.52;;
54121;SDS011;40029;58.708;50.190;2022-07-22T14:39:54;11.40;;;10.30;;
54121;SDS011;40029;58.708;50.190;2022-07-22T14:42:25;9.73;;;8.90;;
54121;SDS011;40029;58.708;50.190;2022-07-22T14:44:56;10.80;;;8.20;;
54121;SDS011;40029;58.708;50.190;2022-07-22T14:47:27;10.57;;;9.57;;
54121;SDS011;40029;58.708;50.190;2022-07-22T14:49:58;9.60;;;8.70;;
54121;SDS011;40029;58.708;50.190;2022-07-22T14:52:29;10.55;;;9.50;;
54121;SDS011;40029;58.708;50.190;2022-07-22T14:55:00;10.93;;;8.88;;
54121;SDS011;40029;58.708;50.190;2022-07-22T14:57:31;9.52;;;8.38;;
54121;SDS011;40029;58.708;50.190;2022-07-22T15:00:02;9.45;;;8.65;;
54121;SDS011;40029;58.708;50.190;2022-07-22T15:02:35;8.57;;;7.78;;
54121;SDS011;40029;58.708;50.190;2022-07-22T15:05:06;9.15;;;8.25;;
54121;SDS011;40029;58.708;50.190;2022-07-22T15:07:37;10.20;;;8.07;;
54121;SDS011;40029;58.708;50.190;2022-07-22T15:10:08;10.15;;;8.45;;
54121;SDS011;40029;58.708;50.190;2022-07-22T15:12:40;9.60;;;8.77;;
54121;SDS011;40029;58.708;50.190;2022-07-22T15:15:12;12.65;;;10.23;;
54121;SDS011;40029;58.708;50.190;2022-07-22T15:17:43;10.27;;;9.10;;